Mariana — 2ETR4 — position and weather

sailwx.info

Track history (hours):
 
Tides and Currents Weather Stations Pressure Air Temp Water Temp Dewpoint Dewpoint Depression Visibility Wind Speed Wind Dir Waves Ship Positions

Mariana

Last reported at 2018-Feb-21 03:34 UTC. Time now 2018-Feb-24 00:53 UTC.
Position S 23°29' W 044°04'.

Length 195 m; draft 7 m.

Type: Cargo ship. MMSI: 235088073.

Date/timePositionNaut miles runAvg speedWind from/ knotsBaromVisibWave heightAir tempDewpointWater temp
2018-Feb-21 03:34S 23°29' W 044°04'1913.4
2018-Feb-21 02:11S 23°10' W 044°03'310.9
2018-Feb-21 01:55S 23°07' W 044°03'4 8.1
2018-Feb-21 01:28S 23°04' W 044°03'  
2018-Feb-14 23:43S 23°07' W 044°02'2 8.0
2018-Feb-14 23:30S 23°09' W 044°01'4 0.1
2018-Feb-13 18:16S 23°10' W 043°58'0 0.1
2018-Feb-13 17:50S 23°10' W 043°58'11 4.5
2018-Feb-13 15:24S 23°10' W 043°46'410.9
2018-Feb-13 15:00S 23°10' W 043°41'510.8
2018-Feb-13 14:31S 23°10' W 043°35'510.7
2018-Feb-13 14:00S 23°10' W 043°29'611.3
2018-Feb-13 13:31S 23°10' W 043°23'612.0
2018-Feb-13 13:01S 23°10' W 043°17'712.3
2018-Feb-13 12:28S 23°11' W 043°09'612.2
2018-Feb-13 12:00S 23°10' W 043°03'712.5
2018-Feb-13 11:28S 23°10' W 042°56'612.8
2018-Feb-13 10:59S 23°10' W 042°49'713.6
2018-Feb-13 10:29S 23°09' W 042°42'  
Track history (hours):
 
Tides and Currents Weather Stations Pressure Air Temp Water Temp Dewpoint Dewpoint Depression Visibility Wind Speed Wind Dir Waves Ship Positions

Mariana

Last reported at 2018-Feb-21 03:34 UTC. Time now 2018-Feb-24 00:53 UTC.
Position S 23°29' W 044°04'.

Length 195 m; draft 7 m.

Type: Cargo ship. MMSI: 235088073.

Date/timePositionNaut miles runAvg speedWind from/ knotsBaromVisibWave heightAir tempDewpointWater temp
2018-Feb-21 03:34S 23°29' W 044°04'1913.4
2018-Feb-21 02:11S 23°10' W 044°03'310.9
2018-Feb-21 01:55S 23°07' W 044°03'4 8.1
2018-Feb-21 01:28S 23°04' W 044°03'  
2018-Feb-14 23:43S 23°07' W 044°02'2 8.0
2018-Feb-14 23:30S 23°09' W 044°01'4 0.1
2018-Feb-13 18:16S 23°10' W 043°58'0 0.1
2018-Feb-13 17:50S 23°10' W 043°58'11 4.5
2018-Feb-13 15:24S 23°10' W 043°46'410.9
2018-Feb-13 15:00S 23°10' W 043°41'510.8
2018-Feb-13 14:31S 23°10' W 043°35'510.7
2018-Feb-13 14:00S 23°10' W 043°29'611.3
2018-Feb-13 13:31S 23°10' W 043°23'612.0
2018-Feb-13 13:01S 23°10' W 043°17'712.3
2018-Feb-13 12:28S 23°11' W 043°09'612.2
2018-Feb-13 12:00S 23°10' W 043°03'712.5
2018-Feb-13 11:28S 23°10' W 042°56'612.8
2018-Feb-13 10:59S 23°10' W 042°49'713.6
2018-Feb-13 10:29S 23°09' W 042°42'  

Dump ship's entire track history